createdAt,value
2019-02-25T00:01:05.169Z,10.00
2019-02-25T00:03:37.194Z,6.43
2019-02-25T00:06:09.236Z,6.87
2019-02-25T00:08:41.932Z,6.70
2019-02-25T00:11:14.010Z,7.30
2019-02-25T00:13:45.935Z,5.20
2019-02-25T00:16:17.862Z,6.30
2019-02-25T00:18:49.848Z,8.63
2019-02-25T00:21:22.007Z,8.40
2019-02-25T00:23:53.927Z,6.37
2019-02-25T00:26:25.833Z,8.50
2019-02-25T00:28:57.770Z,6.27
2019-02-25T00:31:29.709Z,8.50
2019-02-25T00:34:01.648Z,8.80
2019-02-25T00:36:33.588Z,7.37
2019-02-25T00:39:07.702Z,8.60
2019-02-25T00:41:39.956Z,10.50
2019-02-25T00:44:11.932Z,8.43
2019-02-25T00:46:43.869Z,9.60
2019-02-25T00:49:16.047Z,13.37
2019-02-25T00:51:47.948Z,9.90
2019-02-25T00:54:20.009Z,11.77
2019-02-25T00:56:52.094Z,13.33
2019-02-25T00:59:24.121Z,11.97
2019-02-25T01:01:56.214Z,11.33
2019-02-25T01:04:28.221Z,8.70
2019-02-25T01:07:01.294Z,7.63
2019-02-25T01:09:33.221Z,8.73
2019-02-25T01:12:05.159Z,8.63
2019-02-25T01:14:37.098Z,5.97
2019-02-25T01:17:09.039Z,7.87
2019-02-25T01:19:41.116Z,10.07
2019-02-25T01:22:13.022Z,8.40
2019-02-25T01:24:44.960Z,8.03
2019-02-25T01:27:16.924Z,9.87
2019-02-25T01:29:48.826Z,9.67
2019-02-25T01:32:20.759Z,9.43
2019-02-25T01:34:52.801Z,6.93
2019-02-25T01:37:24.740Z,8.73
2019-02-25T01:39:57.060Z,7.87
2019-02-25T01:42:29.141Z,7.97
2019-02-25T01:45:01.088Z,8.03
2019-02-25T01:47:33.164Z,10.93
2019-02-25T01:50:05.755Z,7.83
2019-02-25T01:52:37.801Z,9.03
2019-02-25T01:55:10.386Z,7.13
2019-02-25T01:57:42.451Z,11.70
2019-02-25T02:00:15.963Z,10.13
2019-02-25T02:02:47.896Z,9.10
2019-02-25T02:05:19.842Z,8.20
2019-02-25T02:07:51.885Z,9.50
2019-02-25T02:10:24.067Z,8.33
2019-02-25T02:12:56.279Z,7.63
2019-02-25T02:15:28.410Z,6.67
2019-02-25T02:18:00.424Z,9.43
2019-02-25T02:20:32.525Z,4.90
2019-02-25T02:23:04.725Z,11.93
2019-02-25T02:25:36.818Z,7.97
2019-02-25T02:28:08.832Z,8.63
2019-02-25T02:30:40.855Z,8.30
2019-02-25T02:33:12.950Z,9.50
2019-02-25T02:35:44.973Z,7.47
2019-02-25T02:38:17.080Z,9.00
2019-02-25T02:40:49.171Z,8.77
2019-02-25T02:43:21.197Z,7.47
2019-02-25T02:46:10.731Z,6.50
2019-02-25T02:48:51.397Z,6.13
2019-02-25T02:51:23.499Z,6.47
2019-02-25T02:53:55.601Z,7.30
2019-02-25T02:56:27.695Z,6.73
2019-02-25T02:58:59.800Z,8.90
2019-02-25T03:01:31.818Z,8.67
2019-02-25T03:04:03.912Z,7.23
2019-02-25T03:06:36.009Z,8.43
2019-02-25T03:09:10.868Z,9.03
2019-02-25T03:11:42.959Z,6.10
2019-02-25T03:14:14.988Z,6.57
2019-02-25T03:16:47.069Z,5.30
2019-02-25T03:19:19.086Z,7.93
2019-02-25T03:21:51.114Z,6.03
2019-02-25T03:24:23.207Z,7.23
2019-02-25T03:26:55.307Z,5.93
2019-02-25T03:29:27.319Z,8.13
2019-02-25T03:31:59.420Z,6.60
2019-02-25T03:34:31.515Z,6.10
2019-02-25T03:37:03.864Z,7.20
2019-02-25T03:39:35.954Z,7.50
2019-02-25T03:42:07.984Z,6.07
2019-02-25T03:44:40.183Z,5.97
2019-02-25T03:47:12.281Z,6.73
2019-02-25T03:49:44.378Z,9.03
2019-02-25T03:52:16.402Z,7.17
2019-02-25T03:54:48.500Z,4.87
2019-02-25T03:57:20.695Z,6.10
2019-02-25T03:59:52.799Z,5.50
2019-02-25T04:02:25.098Z,6.17
2019-02-25T04:04:57.124Z,5.67
2019-02-25T04:07:30.554Z,6.50
2019-02-25T04:10:02.643Z,8.03
2019-02-25T04:12:35.913Z,8.70
2019-02-25T04:15:11.556Z,6.90
2019-02-25T04:17:43.634Z,5.83
2019-02-25T04:20:16.492Z,4.60
2019-02-25T04:22:48.603Z,4.60
2019-02-25T04:25:20.704Z,8.07
2019-02-25T04:27:52.734Z,8.27
2019-02-25T04:30:24.828Z,6.80
2019-02-25T04:32:56.870Z,5.13
2019-02-25T04:35:28.970Z,8.33
2019-02-25T04:38:02.969Z,6.33
2019-02-25T04:40:34.796Z,6.47
2019-02-25T04:43:06.891Z,4.80
2019-02-25T04:45:39.178Z,6.47
2019-02-25T04:48:11.547Z,6.33
2019-02-25T04:50:43.643Z,5.77
2019-02-25T04:53:15.798Z,7.93
2019-02-25T04:55:48.232Z,4.90
2019-02-25T04:58:20.313Z,5.30
2019-02-25T05:00:52.460Z,5.73
2019-02-25T05:03:24.498Z,5.40
2019-02-25T05:05:56.660Z,3.70
2019-02-25T05:08:28.793Z,5.57
2019-02-25T05:11:00.886Z,4.43
2019-02-25T05:13:33.011Z,7.30
2019-02-25T05:16:05.045Z,8.20
2019-02-25T05:18:37.144Z,5.93
2019-02-25T05:21:09.241Z,4.83
2019-02-25T05:23:41.315Z,7.90
2019-02-25T05:26:13.332Z,8.00
2019-02-25T05:28:51.925Z,7.00
2019-02-25T05:31:19.267Z,7.37
2019-02-25T05:33:51.298Z,8.67
2019-02-25T05:36:23.407Z,7.23
2019-02-25T05:38:55.517Z,6.10
2019-02-25T05:41:27.608Z,5.50
2019-02-25T05:43:59.708Z,7.80
2019-02-25T05:46:31.719Z,7.37
2019-02-25T05:49:03.749Z,5.67
2019-02-25T05:51:35.874Z,6.80
2019-02-25T05:54:10.738Z,9.63
2019-02-25T05:56:43.771Z,8.67
2019-02-25T05:59:15.937Z,7.37
2019-02-25T06:01:48.045Z,8.60
2019-02-25T06:04:20.057Z,7.77
2019-02-25T06:06:52.083Z,14.53
2019-02-25T06:09:24.102Z,15.93
2019-02-25T06:11:56.203Z,9.63
2019-02-25T06:14:28.245Z,13.43
2019-02-25T06:17:00.363Z,9.97
2019-02-25T06:19:32.476Z,12.37
2019-02-25T06:22:04.578Z,11.20
2019-02-25T06:24:36.685Z,13.60
2019-02-25T06:27:09.293Z,11.43
2019-02-25T06:29:41.320Z,7.57
2019-02-25T06:32:13.367Z,9.07
2019-02-25T06:34:45.449Z,9.57
2019-02-25T06:37:17.579Z,9.70
2019-02-25T06:39:49.691Z,19.73
2019-02-25T06:42:21.786Z,18.37
2019-02-25T06:44:53.871Z,16.60
2019-02-25T06:47:25.888Z,13.30
2019-02-25T06:49:57.975Z,19.23
2019-02-25T06:52:30.002Z,15.73
2019-02-25T06:55:02.020Z,19.20
2019-02-25T06:57:34.149Z,18.57
2019-02-25T07:00:08.950Z,16.77
2019-02-25T07:02:41.051Z,21.00
2019-02-25T07:05:32.132Z,23.13
2019-02-25T07:08:16.730Z,19.97
2019-02-25T07:11:12.288Z,31.73
2019-02-25T07:14:11.905Z,18.53
2019-02-25T07:17:02.678Z,16.23
2019-02-25T07:20:11.626Z,14.77
2019-02-25T07:23:05.144Z,11.50
2019-02-25T07:25:52.983Z,25.60
2019-02-25T07:28:42.622Z,18.00
2019-02-25T07:31:37.886Z,26.23
2019-02-25T07:34:19.404Z,20.13
2019-02-25T07:37:20.445Z,16.90
2019-02-25T07:40:17.063Z,16.67
2019-02-25T07:43:15.420Z,15.63
2019-02-25T07:46:06.450Z,14.30
2019-02-25T07:49:06.444Z,9.53
2019-02-25T07:51:54.227Z,10.07
2019-02-25T07:54:57.225Z,10.50
2019-02-25T07:57:51.250Z,7.93
2019-02-25T08:00:42.100Z,13.00
2019-02-25T08:03:31.349Z,11.20
2019-02-25T08:06:34.328Z,11.13
2019-02-25T08:09:20.153Z,11.83
2019-02-25T08:12:14.008Z,8.87
2019-02-25T08:15:19.936Z,11.87
2019-02-25T08:18:25.608Z,8.93
2019-02-25T08:21:10.322Z,10.40
2019-02-25T08:24:03.830Z,11.60
2019-02-25T08:26:47.505Z,10.57
2019-02-25T08:29:30.173Z,6.53
2019-02-25T08:32:14.606Z,8.37
2019-02-25T08:35:10.042Z,9.37
2019-02-25T08:38:11.989Z,8.83
2019-02-25T08:41:31.148Z,6.67
2019-02-25T08:44:21.996Z,7.93
2019-02-25T08:47:16.532Z,8.17
2019-02-25T08:49:51.405Z,6.33
2019-02-25T08:52:23.659Z,6.63
2019-02-25T08:54:55.677Z,9.37
2019-02-25T08:57:27.779Z,8.40
2019-02-25T08:59:59.879Z,10.23
2019-02-25T09:02:31.872Z,7.87
2019-02-25T09:05:07.746Z,9.07
2019-02-25T09:07:39.724Z,8.20
2019-02-25T09:10:13.532Z,6.10
2019-02-25T09:12:45.637Z,7.77
2019-02-25T09:15:17.672Z,5.83
2019-02-25T09:17:46.904Z,7.33
2019-02-25T09:20:19.010Z,8.33
2019-02-25T09:22:51.060Z,8.43
2019-02-25T09:25:23.066Z,7.47
2019-02-25T09:27:55.099Z,10.33
2019-02-25T09:30:27.151Z,9.20
2019-02-25T09:32:59.200Z,7.13
2019-02-25T09:35:31.293Z,9.53
2019-02-25T09:38:03.267Z,8.93
2019-02-25T09:40:35.356Z,7.33
2019-02-25T09:43:07.499Z,7.40
2019-02-25T09:45:39.607Z,6.20
2019-02-25T09:48:11.577Z,6.27
2019-02-25T09:50:43.597Z,5.37
2019-02-25T09:53:15.642Z,8.70
2019-02-25T09:55:47.751Z,6.80
2019-02-25T09:58:20.072Z,7.37
2019-02-25T10:00:52.164Z,5.13
2019-02-25T10:03:24.222Z,6.70
2019-02-25T10:05:56.361Z,4.83
2019-02-25T10:08:28.409Z,5.23
2019-02-25T10:11:00.500Z,5.67
2019-02-25T10:13:32.556Z,6.37
2019-02-25T10:16:04.567Z,5.40
2019-02-25T10:18:36.613Z,8.27
2019-02-25T10:21:08.618Z,4.43
2019-02-25T10:23:40.623Z,6.60
2019-02-25T10:26:12.693Z,3.93
2019-02-25T10:28:44.658Z,4.17
2019-02-25T10:31:17.525Z,6.30
2019-02-25T10:33:50.845Z,4.93
2019-02-25T10:36:22.985Z,5.33
2019-02-25T10:38:55.045Z,5.60
2019-02-25T10:41:27.857Z,4.63
2019-02-25T10:44:00.710Z,6.20
2019-02-25T10:46:33.650Z,5.60
2019-02-25T10:49:11.531Z,5.37
2019-02-25T10:51:41.061Z,5.93
2019-02-25T10:54:14.407Z,6.33
2019-02-25T10:57:00.035Z,4.50
2019-02-25T10:59:34.447Z,4.53
2019-02-25T11:02:06.522Z,6.67
2019-02-25T11:04:38.528Z,3.47
2019-02-25T11:07:10.768Z,3.60
2019-02-25T11:09:55.517Z,5.37
2019-02-25T11:12:28.428Z,5.57
2019-02-25T11:15:01.534Z,4.87
2019-02-25T11:17:33.626Z,4.40
2019-02-25T11:20:08.087Z,3.97
2019-02-25T11:22:41.997Z,3.20
2019-02-25T11:25:14.445Z,4.73
2019-02-25T11:27:46.561Z,4.37
2019-02-25T11:30:19.473Z,4.20
2019-02-25T11:32:53.942Z,5.80
2019-02-25T11:35:26.177Z,4.33
2019-02-25T11:37:59.636Z,4.57
2019-02-25T11:40:33.677Z,4.40
2019-02-25T11:43:05.758Z,4.30
2019-02-25T11:45:38.213Z,5.73
2019-02-25T11:48:10.495Z,4.50
2019-02-25T11:50:42.472Z,6.03
2019-02-25T11:53:14.565Z,5.63
2019-02-25T11:55:46.614Z,4.40
2019-02-25T11:58:18.619Z,4.73
2019-02-25T12:00:50.677Z,4.97
2019-02-25T12:03:22.773Z,5.93
2019-02-25T12:05:54.820Z,4.73
2019-02-25T12:08:26.819Z,4.07
2019-02-25T12:10:58.787Z,5.30
2019-02-25T12:13:31.112Z,4.43
2019-02-25T12:16:03.214Z,4.40
2019-02-25T12:18:35.568Z,3.87
2019-02-25T12:21:07.924Z,3.10
2019-02-25T12:23:40.009Z,2.73
2019-02-25T12:26:12.162Z,3.67
2019-02-25T12:28:44.462Z,2.87
2019-02-25T12:31:16.747Z,3.40
2019-02-25T12:33:48.968Z,3.77
2019-02-25T12:36:21.119Z,3.52
2019-02-25T12:38:53.302Z,2.72
2019-02-25T12:41:27.237Z,3.80
2019-02-25T12:43:59.290Z,4.13
2019-02-25T12:46:31.564Z,2.50
2019-02-25T12:49:03.781Z,3.17
2019-02-25T12:51:35.961Z,2.53
2019-02-25T12:54:08.099Z,2.77
2019-02-25T12:56:40.134Z,2.67
2019-02-25T12:59:12.227Z,3.53
2019-02-25T13:01:44.281Z,2.87
2019-02-25T13:04:16.378Z,3.80
2019-02-25T13:06:48.432Z,3.10
2019-02-25T13:09:20.645Z,2.77
2019-02-25T13:11:52.818Z,2.87
2019-02-25T13:14:25.032Z,2.13
2019-02-25T13:16:57.114Z,2.83
2019-02-25T13:19:29.209Z,2.40
2019-02-25T13:22:01.257Z,2.50
2019-02-25T13:24:35.145Z,2.90
2019-02-25T13:27:08.468Z,2.57
2019-02-25T13:29:40.910Z,2.30
2019-02-25T13:32:12.961Z,2.63
2019-02-25T13:34:45.053Z,3.27
2019-02-25T13:37:17.100Z,2.40
2019-02-25T13:39:49.195Z,2.87
2019-02-25T13:42:21.288Z,2.73
2019-02-25T13:44:53.384Z,2.70
2019-02-25T13:47:25.431Z,4.00
2019-02-25T13:49:59.067Z,2.70
2019-02-25T13:52:31.109Z,2.40
2019-02-25T13:55:03.202Z,2.97
2019-02-25T13:57:35.253Z,3.27
2019-02-25T14:00:18.209Z,2.33
2019-02-25T14:02:50.474Z,2.00
2019-02-25T14:05:22.770Z,3.90
2019-02-25T14:07:54.917Z,3.33
2019-02-25T14:10:27.006Z,3.63
2019-02-25T14:12:59.063Z,2.50
2019-02-25T14:15:31.206Z,3.10
2019-02-25T14:18:03.360Z,2.90
2019-02-25T14:20:35.559Z,3.30
2019-02-25T14:23:07.710Z,2.27
2019-02-25T14:25:41.562Z,2.07
2019-02-25T14:28:13.856Z,2.20
2019-02-25T14:30:46.065Z,2.83
2019-02-25T14:33:18.437Z,2.92
2019-02-25T14:35:53.106Z,3.10
2019-02-25T14:38:25.307Z,2.63
2019-02-25T14:40:58.202Z,2.83
2019-02-25T14:43:30.254Z,1.37
2019-02-25T14:46:04.815Z,1.60
2019-02-25T14:48:36.793Z,1.47
2019-02-25T14:51:08.913Z,3.40
2019-02-25T14:53:42.266Z,2.90
2019-02-25T14:56:14.768Z,2.47
2019-02-25T14:58:47.763Z,2.10
2019-02-25T15:01:21.004Z,2.03
2019-02-25T15:03:53.610Z,2.93
2019-02-25T15:06:28.015Z,2.23
2019-02-25T15:09:01.483Z,2.23
2019-02-25T15:11:33.507Z,2.37
2019-02-25T15:14:05.943Z,5.10
2019-02-25T15:16:39.482Z,3.47
2019-02-25T15:19:13.375Z,2.57
2019-02-25T15:21:47.452Z,3.93
2019-02-25T15:24:19.156Z,2.30
2019-02-25T15:26:51.448Z,2.33
2019-02-25T15:29:23.508Z,2.80
2019-02-25T15:31:57.017Z,1.70
2019-02-25T15:34:29.268Z,2.13
2019-02-25T15:37:02.675Z,1.93
2019-02-25T15:39:35.383Z,1.47
2019-02-25T15:42:07.577Z,3.53
2019-02-25T15:44:40.326Z,4.33
2019-02-25T15:47:15.089Z,5.07
2019-02-25T15:49:48.017Z,2.43
2019-02-25T15:52:21.071Z,2.47
2019-02-25T15:54:53.784Z,1.80
2019-02-25T15:57:26.467Z,3.07
2019-02-25T15:59:59.917Z,3.17
2019-02-25T16:02:32.010Z,2.63
2019-02-25T16:05:05.862Z,2.63
2019-02-25T16:07:40.124Z,2.33
2019-02-25T16:10:14.180Z,3.67
2019-02-25T16:12:47.885Z,2.13
2019-02-25T16:15:20.573Z,2.00
2019-02-25T16:17:53.195Z,2.20
2019-02-25T16:20:25.735Z,3.73
2019-02-25T16:23:00.187Z,3.70
2019-02-25T16:25:32.172Z,2.70
2019-02-25T16:28:06.068Z,3.77
2019-02-25T16:30:40.492Z,5.63
2019-02-25T16:33:14.327Z,4.50
2019-02-25T16:35:46.324Z,4.37
2019-02-25T16:38:21.068Z,4.50
2019-02-25T16:40:54.662Z,4.27
2019-02-25T16:43:25.957Z,4.33
2019-02-25T16:45:59.462Z,3.63
2019-02-25T16:48:32.609Z,5.97
2019-02-25T16:51:07.150Z,5.13
2019-02-25T16:53:39.412Z,4.53
2019-02-25T16:56:14.187Z,5.20
2019-02-25T16:58:47.692Z,4.63
2019-02-25T17:01:20.042Z,4.80
2019-02-25T17:03:52.247Z,4.27
2019-02-25T17:06:25.858Z,6.17
2019-02-25T17:08:57.999Z,6.20
2019-02-25T17:11:30.189Z,9.13
2019-02-25T17:14:03.780Z,11.97
2019-02-25T17:16:35.951Z,11.03
2019-02-25T17:19:08.058Z,27.10
2019-02-25T17:21:43.079Z,34.47
2019-02-25T17:24:14.073Z,28.30
2019-02-25T17:26:46.149Z,25.70
2019-02-25T17:29:18.239Z,13.93
2019-02-25T17:31:50.302Z,10.60
2019-02-25T17:34:22.269Z,5.83
2019-02-25T17:36:54.664Z,4.43
2019-02-25T17:39:26.680Z,4.13
2019-02-25T17:41:59.427Z,3.60
2019-02-25T17:44:34.308Z,4.27
2019-02-25T17:47:06.714Z,5.97
2019-02-25T17:49:40.609Z,7.63
2019-02-25T17:52:14.185Z,5.83
2019-02-25T17:54:46.973Z,5.47
2019-02-25T17:57:19.254Z,6.37
2019-02-25T17:59:52.723Z,5.20
2019-02-25T18:02:24.823Z,3.57
2019-02-25T18:04:57.478Z,3.73
2019-02-25T18:07:30.072Z,6.30
2019-02-25T18:10:03.445Z,4.50
2019-02-25T18:12:39.862Z,7.80
2019-02-25T18:15:17.939Z,8.07
2019-02-25T18:17:51.474Z,7.97
2019-02-25T18:20:23.888Z,7.27
2019-02-25T18:22:55.925Z,6.97
2019-02-25T18:25:28.133Z,8.23
2019-02-25T18:28:00.071Z,9.60
2019-02-25T18:30:33.359Z,9.77
2019-02-25T18:33:06.127Z,8.37
2019-02-25T18:35:40.994Z,6.40
2019-02-25T18:38:11.979Z,13.27
2019-02-25T18:40:45.833Z,11.00
2019-02-25T18:43:17.749Z,10.73
2019-02-25T18:45:49.712Z,10.30
2019-02-25T18:48:23.226Z,10.90
2019-02-25T18:50:58.514Z,12.77
2019-02-25T18:53:29.408Z,8.53
2019-02-25T18:56:01.454Z,10.40
2019-02-25T18:58:35.284Z,11.43
2019-02-25T19:01:09.739Z,11.13
2019-02-25T19:03:41.448Z,12.33
2019-02-25T19:06:14.938Z,8.87
2019-02-25T19:08:49.365Z,10.00
2019-02-25T19:11:23.582Z,12.63
2019-02-25T19:13:56.730Z,13.47
2019-02-25T19:16:29.272Z,9.00
2019-02-25T19:19:03.878Z,11.33
2019-02-25T19:21:35.129Z,8.33
2019-02-25T19:24:07.665Z,7.63
2019-02-25T19:26:42.455Z,8.77
2019-02-25T19:29:15.246Z,10.43
2019-02-25T19:31:48.066Z,8.83
2019-02-25T19:34:20.056Z,8.63
2019-02-25T19:36:52.085Z,12.73
2019-02-25T19:39:24.063Z,9.53
2019-02-25T19:41:56.777Z,7.73
2019-02-25T19:44:31.878Z,8.97
2019-02-25T19:47:03.698Z,8.23
2019-02-25T19:49:36.787Z,6.10
2019-02-25T19:52:09.729Z,12.13
2019-02-25T19:54:43.258Z,8.10
2019-02-25T19:57:16.595Z,7.97
2019-02-25T19:59:50.700Z,10.40
2019-02-25T20:02:24.780Z,10.87
2019-02-25T20:04:57.177Z,10.40
2019-02-25T20:07:30.899Z,9.93
2019-02-25T20:10:02.959Z,9.57
2019-02-25T20:12:35.681Z,8.13
2019-02-25T20:15:11.740Z,9.20
2019-02-25T20:17:46.745Z,10.53
2019-02-25T20:20:18.910Z,9.53
2019-02-25T20:22:50.949Z,8.13
2019-02-25T20:25:24.472Z,9.53
2019-02-25T20:27:57.580Z,8.97
2019-02-25T20:30:30.650Z,10.80
2019-02-25T20:33:03.805Z,8.53
2019-02-25T20:35:36.242Z,13.70
2019-02-25T20:38:08.388Z,9.23
2019-02-25T20:40:40.321Z,11.33
2019-02-25T20:43:12.271Z,8.13
2019-02-25T20:45:44.391Z,8.77
2019-02-25T20:48:16.425Z,9.50
2019-02-25T20:50:48.373Z,9.50
2019-02-25T20:53:20.318Z,10.83
2019-02-25T20:55:54.513Z,10.17
2019-02-25T20:58:26.195Z,9.93
2019-02-25T21:00:58.157Z,12.00
2019-02-25T21:03:30.188Z,11.03
2019-02-25T21:06:02.706Z,15.23
2019-02-25T21:08:35.349Z,10.50
2019-02-25T21:11:11.085Z,12.00
2019-02-25T21:13:42.531Z,16.10
2019-02-25T21:16:16.163Z,19.07
2019-02-25T21:18:48.784Z,12.00
2019-02-25T21:21:21.804Z,13.47
2019-02-25T21:23:53.747Z,13.27
2019-02-25T21:26:29.292Z,11.20
2019-02-25T21:29:00.273Z,12.63
2019-02-25T21:31:32.997Z,13.23
2019-02-25T21:34:05.236Z,12.60
2019-02-25T21:36:38.159Z,10.17
2019-02-25T21:39:12.842Z,9.97
2019-02-25T21:41:45.850Z,12.37
2019-02-25T21:44:19.458Z,10.87
2019-02-25T21:46:53.798Z,15.07
2019-02-25T21:49:27.143Z,12.00
2019-02-25T21:52:00.248Z,10.93
2019-02-25T21:54:32.716Z,9.33
2019-02-25T21:57:05.463Z,10.47
2019-02-25T21:59:38.731Z,10.07
2019-02-25T22:02:11.933Z,12.00
2019-02-25T22:04:45.402Z,11.20
2019-02-25T22:07:24.118Z,13.50
2019-02-25T22:09:51.252Z,9.40
2019-02-25T22:12:23.179Z,9.50
2019-02-25T22:14:55.099Z,9.50
2019-02-25T22:17:27.026Z,9.73
2019-02-25T22:19:58.966Z,9.47
2019-02-25T22:22:31.601Z,11.27
2019-02-25T22:25:06.667Z,9.93
2019-02-25T22:27:39.093Z,16.03
2019-02-25T22:30:15.095Z,16.00
2019-02-25T22:32:46.990Z,12.20
2019-02-25T22:35:18.932Z,9.97
2019-02-25T22:37:52.691Z,10.10
2019-02-25T22:40:24.458Z,11.63
2019-02-25T22:42:58.405Z,11.33
2019-02-25T22:45:31.469Z,11.90
2019-02-25T22:48:03.670Z,10.73
2019-02-25T22:50:37.644Z,9.47
2019-02-25T22:53:11.151Z,9.33
2019-02-25T22:55:44.830Z,9.17
2019-02-25T22:58:17.085Z,11.43
2019-02-25T23:00:58.259Z,15.03
2019-02-25T23:03:28.912Z,12.17
2019-02-25T23:06:00.843Z,16.30
2019-02-25T23:08:32.903Z,16.07
2019-02-25T23:11:05.083Z,17.40
2019-02-25T23:13:37.021Z,15.37
2019-02-25T23:16:10.252Z,11.70
2019-02-25T23:18:42.193Z,11.03
2019-02-25T23:21:23.222Z,8.93
2019-02-25T23:23:51.253Z,10.30
2019-02-25T23:26:21.692Z,11.47
2019-02-25T23:28:55.450Z,10.67
2019-02-25T23:31:29.750Z,9.23
2019-02-25T23:34:00.893Z,11.77
2019-02-25T23:36:32.849Z,9.93
2019-02-25T23:39:06.921Z,8.53
2019-02-25T23:41:39.496Z,9.17
2019-02-25T23:44:13.278Z,7.23
2019-02-25T23:46:46.155Z,10.30
2019-02-25T23:49:26.867Z,10.10
2019-02-25T23:51:51.754Z,13.67
2019-02-25T23:54:25.547Z,17.23
2019-02-25T23:56:59.633Z,17.03
2019-02-25T23:59:30.975Z,15.57
